Time;durP1;ratioP1;P1;durP2;ratioP2;P2;SDS_P1;SDS_P2;PMS_P1;PMS_P2;Temp;Humidity;BMP_temperature;BMP_pressure;BME280_temperature;BME280_humidity;BME280_pressure;Samples;Min_cycle;Max_cycle;Signal;HPM_P1;HPM_P2
2022/08/24 00:01:26;;;;;;;14.03;6.47;;;;;;;19.35;70.63;99629.36;1610089;88;21605;-77
2022/08/24 00:03:56;;;;;;;19.05;6.62;;;;;;;19.35;70.55;99638.51;1614040;88;21527;-77
2022/08/24 00:06:24;;;;;;;10.58;6.45;;;;;;;19.36;70.68;99637.92;1613122;88;20969;-78
2022/08/24 00:08:51;;;;;;;15.95;6.20;;;;;;;19.35;70.68;99642.69;1625965;87;21543;-75
2022/08/24 00:11:19;;;;;;;9.55;5.90;;;;;;;19.35;70.84;99639.09;1580387;89;21039;-76
2022/08/24 00:13:46;;;;;;;10.05;6.65;;;;;;;19.34;70.81;99641.08;1616267;88;20989;-76
2022/08/24 00:16:13;;;;;;;15.35;6.67;;;;;;;19.35;70.82;99645.47;1613815;88;21225;-76
2022/08/24 00:18:40;;;;;;;15.08;6.85;;;;;;;19.35;70.76;99651.03;1610141;88;21024;-76
2022/08/24 00:21:07;;;;;;;15.95;6.35;;;;;;;19.34;70.63;99644.45;1612256;88;20937;-75
2022/08/24 00:23:35;;;;;;;10.18;6.40;;;;;;;19.37;70.34;99644.51;1606573;88;21508;-75
2022/08/24 00:26:02;;;;;;;21.33;6.90;;;;;;;19.38;70.36;99648.09;1611804;88;21009;-75
2022/08/24 00:28:29;;;;;;;14.25;6.70;;;;;;;19.37;70.13;99643.12;1612770;88;21180;-74
2022/08/24 00:30:55;;;;;;;7.42;5.75;;;;;;;19.38;70.02;99646.12;1605524;87;21682;-74
2022/08/24 00:33:22;;;;;;;13.65;6.25;;;;;;;19.38;69.93;99657.84;1603664;88;21001;-74
2022/08/24 00:35:49;;;;;;;10.23;5.83;;;;;;;19.36;69.93;99649.05;1618208;87;21052;-74
2022/08/24 00:38:15;;;;;;;16.32;6.08;;;;;;;19.34;69.97;99652.21;1612509;88;20922;-74
2022/08/24 00:40:45;;;;;;;13.62;6.58;;;;;;;19.32;70.08;99651.78;1610333;88;21752;-74
2022/08/24 00:43:17;;;;;;;14.65;6.28;;;;;;;19.28;70.11;99652.30;1616186;88;21065;-74
2022/08/24 00:45:49;;;;;;;11.05;5.47;;;;;;;19.25;70.22;99658.61;1610600;88;20998;-74
2022/08/24 00:48:22;;;;;;;13.38;6.78;;;;;;;19.21;70.28;99659.14;1611911;88;20933;-74
2022/08/24 00:50:59;;;;;;;11.35;6.42;;;;;;;19.17;70.34;99657.47;1610212;88;21016;-73
2022/08/24 00:53:40;;;;;;;19.60;6.95;;;;;;;19.12;70.37;99657.98;1581174;89;21155;-72
2022/08/24 00:56:15;;;;;;;13.05;6.28;;;;;;;19.08;70.45;99657.12;1566696;90;21009;-74
2022/08/24 00:58:48;;;;;;;11.20;6.15;;;;;;;19.06;70.51;99658.08;1564159;90;21116;-76
2022/08/24 01:01:15;;;;;;;11.03;6.62;;;;;;;19.02;70.58;99653.65;1612186;88;20902;-75
2022/08/24 01:03:42;;;;;;;15.83;6.25;;;;;;;18.98;70.75;99650.80;1615358;88;21029;-75
2022/08/24 01:06:09;;;;;;;13.53;5.80;;;;;;;18.96;70.84;99649.56;1603894;88;21132;-75
2022/08/24 01:08:37;;;;;;;12.15;5.60;;;;;;;18.92;70.92;99651.47;1596470;87;21150;-74
2022/08/24 01:11:13;;;;;;;21.93;6.15;;;;;;;18.88;70.88;99655.58;1602933;87;21038;-76
2022/08/24 01:13:44;;;;;;;10.98;6.03;;;;;;;18.85;71.02;99652.14;1578771;88;21080;-76
2022/08/24 01:16:12;;;;;;;14.47;6.20;;;;;;;18.82;71.03;99659.83;1618623;87;21103;-77
2022/08/24 01:18:50;;;;;;;23.50;6.75;;;;;;;18.78;71.23;99656.17;1591056;87;21207;-75
2022/08/24 01:21:31;;;;;;;9.78;6.35;;;;;;;18.74;70.99;99660.86;1627351;87;21036;-74
2022/08/24 01:24:03;;;;;;;11.28;5.97;;;;;;;18.73;71.01;99663.42;1612562;88;21206;-74
2022/08/24 01:26:35;;;;;;;19.17;6.33;;;;;;;18.72;71.01;99665.98;1597427;88;21148;-77
2022/08/24 01:29:06;;;;;;;13.45;6.80;;;;;;;18.72;70.92;99673.74;1607702;88;21049;-77
2022/08/24 01:31:34;;;;;;;11.00;6.20;;;;;;;18.72;71.06;99670.16;1599175;88;21761;-77
2022/08/24 01:34:01;;;;;;;15.88;6.35;;;;;;;18.67;71.12;99667.09;1611676;88;21017;-77
2022/08/24 01:36:37;;;;;;;9.78;6.20;;;;;;;18.63;71.16;99673.75;1617049;88;20986;-76
2022/08/24 01:39:16;;;;;;;11.97;5.45;;;;;;;18.60;71.43;99675.84;1613784;88;21064;-75
2022/08/24 01:41:44;;;;;;;12.80;5.95;;;;;;;18.56;71.33;99679.94;1611449;88;21618;-75
2022/08/24 01:44:10;;;;;;;14.60;5.90;;;;;;;18.53;71.51;99678.47;1601609;88;22283;-73
2022/08/24 01:46:47;;;;;;;15.48;6.20;;;;;;;18.46;71.43;99685.52;1615848;88;21159;-74
2022/08/24 01:49:14;;;;;;;16.73;6.17;;;;;;;18.44;71.71;99679.52;1611976;87;21079;-74
2022/08/24 01:51:41;;;;;;;15.78;6.30;;;;;;;18.40;71.74;99680.61;1608625;88;21605;-75
2022/08/24 01:54:08;;;;;;;11.38;6.05;;;;;;;18.35;71.86;99680.91;1617109;88;21000;-73
2022/08/24 01:56:35;;;;;;;7.87;5.83;;;;;;;18.31;72.03;99680.83;1610980;88;21569;-73
2022/08/24 01:59:02;;;;;;;13.62;6.58;;;;;;;18.30;72.19;99679.21;1618128;88;21048;-73
2022/08/24 02:01:31;;;;;;;13.83;6.08;;;;;;;18.27;72.29;99679.14;1597305;88;21077;-74
2022/08/24 02:03:58;;;;;;;13.75;6.10;;;;;;;18.26;72.22;99679.72;1610561;87;21029;-74
2022/08/24 02:06:25;;;;;;;14.93;6.22;;;;;;;18.26;72.32;99688.64;1599366;88;21092;-75
2022/08/24 02:08:53;;;;;;;15.55;6.60;;;;;;;18.24;72.37;99690.98;1609016;87;21168;-75
2022/08/24 02:11:20;;;;;;;10.80;6.30;;;;;;;18.22;72.38;99691.92;1622554;87;20985;-73
2022/08/24 02:13:47;;;;;;;20.40;6.92;;;;;;;18.22;72.17;99692.73;1603270;88;21509;-73
2022/08/24 02:16:14;;;;;;;10.65;6.12;;;;;;;18.24;72.24;99692.37;1613752;88;21073;-73
2022/08/24 02:18:42;;;;;;;14.63;5.72;;;;;;;18.22;72.37;99687.17;1614581;87;21048;-74
2022/08/24 02:21:09;;;;;;;11.68;5.83;;;;;;;18.23;72.32;99689.37;1610039;88;21134;-75
2022/08/24 02:23:39;;;;;;;15.28;6.12;;;;;;;18.20;72.32;99689.51;1610968;88;20946;-75
2022/08/24 02:26:07;;;;;;;11.80;6.28;;;;;;;18.19;72.41;99690.67;1621386;88;20930;-75
2022/08/24 02:28:34;;;;;;;11.25;5.80;;;;;;;18.16;72.45;99687.23;1609804;88;21099;-75
2022/08/24 02:31:04;;;;;;;11.33;5.95;;;;;;;18.13;72.68;99692.93;1621447;88;21596;-75
2022/08/24 02:33:33;;;;;;;13.47;6.23;;;;;;;;;;1567943;89;21310;-75
2022/08/24 02:36:00;;;;;;;14.83;6.33;;;;;;;18.05;73.01;99686.19;1554036;91;21573;-75
2022/08/24 02:38:27;;;;;;;12.40;5.67;;;;;;;18.01;73.13;99690.85;1564335;90;21157;-75
2022/08/24 02:40:56;;;;;;;16.57;6.35;;;;;;;17.98;73.28;99692.38;1565815;90;21066;-75
2022/08/24 02:43:24;;;;;;;11.28;5.42;;;;;;;17.96;73.45;99691.13;1548863;91;21096;-75
2022/08/24 02:45:50;;;;;;;10.65;5.65;;;;;;;17.95;73.38;99703.41;1614921;87;21119;-75
2022/08/24 02:48:18;;;;;;;11.10;5.78;;;;;;;17.95;73.49;99693.69;1612182;88;20989;-75
2022/08/24 02:50:47;;;;;;;13.48;6.67;;;;;;;17.93;73.41;99698.21;1625022;88;20941;-75
2022/08/24 02:53:15;;;;;;;13.28;6.83;;;;;;;17.94;73.47;99701.80;1599658;88;20989;-75
2022/08/24 02:55:42;;;;;;;12.43;6.20;;;;;;;17.94;73.64;99701.80;1611970;88;21017;-73
2022/08/24 02:58:10;;;;;;;13.68;6.05;;;;;;;17.90;73.62;99696.19;1609963;88;21167;-73
2022/08/24 03:00:37;;;;;;;13.30;5.25;;;;;;;17.89;73.67;99696.55;1616863;88;20918;-72
2022/08/24 03:03:05;;;;;;;12.20;5.80;;;;;;;17.87;73.77;99696.11;1615093;88;20973;-73
2022/08/24 03:05:35;;;;;;;15.55;6.30;;;;;;;17.85;73.70;99695.66;1615644;87;21001;-73
2022/08/24 03:08:02;;;;;;;16.80;6.47;;;;;;;17.84;73.82;99702.38;1622638;88;21017;-71
2022/08/24 03:10:30;;;;;;;16.90;6.08;;;;;;;17.81;74.02;99707.48;1603019;87;21232;-71
2022/08/24 03:12:58;;;;;;;15.75;5.85;;;;;;;17.80;74.08;99698.13;1615190;88;21119;-75
2022/08/24 03:15:24;;;;;;;17.62;6.30;;;;;;;17.79;74.21;99708.43;1612700;87;21253;-73
2022/08/24 03:17:52;;;;;;;11.73;5.92;;;;;;;17.81;74.07;99703.91;1621612;87;20929;-76
2022/08/24 03:20:21;;;;;;;13.32;5.58;;;;;;;17.81;74.11;99706.68;1579108;89;20984;-74
2022/08/24 03:22:48;;;;;;;10.48;5.85;;;;;;;17.81;74.15;99706.09;1568657;90;21958;-82
2022/08/24 03:25:15;;;;;;;11.00;5.92;;;;;;;17.81;74.10;99711.65;1575020;89;21118;-75
2022/08/24 03:27:42;;;;;;;11.35;5.90;;;;;;;17.83;74.20;99717.42;1580059;89;21577;-77
2022/08/24 03:30:14;;;;;;;7.60;5.40;;;;;;;17.81;74.18;99708.88;1578472;89;21084;-80
2022/08/24 03:32:41;;;;;;;11.10;6.28;;;;;;;17.80;74.16;99710.04;1579557;89;21058;-76
2022/08/24 03:35:10;;;;;;;14.63;6.33;;;;;;;17.77;74.19;99703.81;1576601;89;21471;-76
2022/08/24 03:37:36;;;;;;;8.03;5.35;;;;;;;17.77;74.17;99704.41;1575287;89;21620;-73
2022/08/24 03:40:06;;;;;;;11.53;5.80;;;;;;;17.78;74.16;99712.37;1576239;89;21055;-76
2022/08/24 03:42:33;;;;;;;12.13;5.50;;;;;;;17.78;74.11;99706.81;1578982;89;21593;-78
2022/08/24 03:45:00;;;;;;;18.25;5.90;;;;;;;17.80;73.88;99714.20;1582194;89;21018;-73
2022/08/24 03:47:27;;;;;;;7.45;5.50;;;;;;;17.85;73.81;99717.88;1611926;86;21163;-83
2022/08/24 03:49:55;;;;;;;12.33;5.40;;;;;;;17.87;73.88;99716.34;1611097;86;21686;-74
2022/08/24 03:52:22;;;;;;;14.07;5.53;;;;;;;17.94;73.58;99719.85;1622823;88;21055;-73
2022/08/24 03:54:50;;;;;;;13.20;6.00;;;;;;;17.96;73.17;99714.73;1611612;87;21061;-72
2022/08/24 03:57:17;;;;;;;15.58;5.35;;;;;;;17.98;72.99;99717.97;1620402;87;20983;-72
2022/08/24 03:59:44;;;;;;;10.85;5.80;;;;;;;18.00;72.86;99715.62;1613104;86;21760;-73
2022/08/24 04:02:11;;;;;;;14.50;5.20;;;;;;;18.03;72.73;99714.91;1661656;85;20998;-73
2022/08/24 04:04:38;;;;;;;15.20;5.30;;;;;;;18.05;72.58;99716.74;1645150;86;21480;-71
2022/08/24 04:07:05;;;;;;;14.68;6.17;;;;;;;18.08;72.18;99716.02;1629280;87;20980;-73
2022/08/24 04:09:32;;;;;;;14.70;6.03;;;;;;;18.12;71.92;99718.30;1657912;85;21038;-73
2022/08/24 04:11:59;;;;;;;11.80;4.80;;;;;;;18.18;71.66;99718.82;1625410;86;21159;-78
2022/08/24 04:14:26;;;;;;;18.37;5.55;;;;;;;18.24;71.54;99715.40;1636039;86;21590;-79
2022/08/24 04:16:54;;;;;;;10.93;4.87;;;;;;;18.30;71.21;99715.34;1611733;88;21594;-68
2022/08/24 04:19:23;;;;;;;9.13;5.10;;;;;;;18.37;70.91;99716.08;1586722;89;21105;-69
2022/08/24 04:21:50;;;;;;;11.28;6.10;;;;;;;18.42;71.02;99716.60;1644608;85;20971;-70
2022/08/24 04:24:19;;;;;;;9.00;5.08;;;;;;;18.47;70.67;99714.92;1647644;86;21799;-76
2022/08/24 04:26:46;;;;;;;12.85;4.87;;;;;;;18.54;70.26;99711.47;1620742;87;21497;-78
2022/08/24 04:29:18;;;;;;;7.53;4.97;;;;;;;18.62;69.89;99711.06;1626937;87;21193;-82
2022/08/24 04:31:47;;;;;;;10.70;4.92;;;;;;;18.71;68.92;99717.21;1653033;86;21446;-85
2022/08/24 04:34:14;;;;;;;12.45;5.65;;;;;;;18.78;68.55;99707.62;1646503;85;20904;-86
2022/08/24 04:36:43;;;;;;;10.25;5.37;;;;;;;18.85;68.68;99711.94;1654772;86;21156;-81
2022/08/24 04:39:10;;;;;;;9.25;5.42;;;;;;;18.92;68.45;99708.49;1616140;86;21186;-80
2022/08/24 04:41:56;;;;;;;13.78;5.62;;;;;;;18.99;67.68;99708.05;1646198;85;20980;-78
2022/08/24 04:44:23;;;;;;;12.35;5.42;;;;;;;19.10;67.34;99709.03;1627661;87;21009;-79
2022/08/24 04:46:49;;;;;;;10.78;4.47;;;;;;;19.17;67.01;99700.59;1636905;86;21025;-76
2022/08/24 04:49:16;;;;;;;9.78;4.53;;;;;;;19.24;66.37;99700.73;1658055;85;21553;-82
2022/08/24 04:51:43;;;;;;;21.68;5.35;;;;;;;19.33;66.21;99700.70;1627948;87;20982;-87
2022/08/24 04:54:10;;;;;;;9.20;5.65;;;;;;;19.42;65.26;99701.85;1622771;88;21069;-72
2022/08/24 04:56:37;;;;;;;11.30;5.22;;;;;;;19.51;64.69;99709.41;1602460;88;21071;-70
2022/08/24 04:59:04;;;;;;;17.05;5.60;;;;;;;19.60;64.86;99703.00;1654546;85;20943;-71
2022/08/24 05:01:32;;;;;;;13.78;4.70;;;;;;;19.70;63.67;99704.32;1603426;88;21744;-77
2022/08/24 05:03:59;;;;;;;18.10;5.47;;;;;;;19.81;62.78;99703.10;1608959;87;21518;-88
2022/08/24 05:06:28;;;;;;;15.85;4.80;;;;;;;19.93;62.14;99707.88;1618327;86;20943;-80
2022/08/24 05:08:56;;;;;;;10.98;5.37;;;;;;;20.04;61.86;99710.83;1621437;85;21173;-77
2022/08/24 05:11:25;;;;;;;9.05;5.03;;;;;;;20.09;61.91;99707.13;1590023;88;21110;-80
2022/08/24 05:13:53;;;;;;;14.18;5.62;;;;;;;20.17;60.48;99711.42;1642542;85;21195;-77
2022/08/24 05:16:20;;;;;;;10.15;5.28;;;;;;;20.24;60.76;99709.52;1646741;86;21085;-73
2022/08/24 05:18:49;;;;;;;9.85;5.28;;;;;;;20.35;60.49;99713.84;1631581;85;21074;-72
2022/08/24 05:21:19;;;;;;;14.30;5.15;;;;;;;20.42;59.79;99714.78;1623894;86;21066;-73
2022/08/24 05:24:00;;;;;;;14.35;4.53;;;;;;;20.52;60.24;99721.69;1615708;87;21569;-72
2022/08/24 05:26:29;;;;;;;;;;;;;;;20.61;60.28;99718.61;1728559;81;21718;-75
2022/08/24 05:29:00;;;;;;;13.45;4.67;;;;;;;20.72;60.26;99718.16;1725389;79;20449;-72
2022/08/24 05:31:32;;;;;;;11.83;4.42;;;;;;;20.80;59.47;99714.24;1753348;79;21292;-78
2022/08/24 05:34:03;;;;;;;16.97;5.00;;;;;;;20.93;59.45;99711.41;1759743;80;20966;-75
2022/08/24 05:36:33;;;;;;;9.05;4.05;;;;;;;21.05;57.90;99717.33;1745171;79;21436;-75
2022/08/24 05:39:04;;;;;;;10.38;4.45;;;;;;;21.16;57.13;99720.23;1732050;79;21888;-84
2022/08/24 05:41:33;;;;;;;10.68;5.92;;;;;;;21.28;56.97;99720.80;1741545;80;20963;-83
2022/08/24 05:44:02;;;;;;;12.60;6.40;;;;;;;21.41;56.85;99721.30;1751050;80;20982;-80
2022/08/24 05:46:30;;;;;;;10.10;4.92;;;;;;;21.53;55.72;99721.61;1765173;79;20936;-78
2022/08/24 05:49:00;;;;;;;7.90;4.85;;;;;;;21.63;55.39;99721.70;1734316;80;20979;-76
2022/08/24 05:51:29;;;;;;;10.32;4.28;;;;;;;21.74;54.97;99731.58;1745475;80;21202;-79
2022/08/24 05:53:59;;;;;;;8.65;4.28;;;;;;;21.85;55.38;99727.48;1755633;81;21376;-70
2022/08/24 05:56:27;;;;;;;19.55;4.22;;;;;;;21.96;55.08;99732.53;1770791;79;20915;-70
2022/08/24 05:58:54;;;;;;;12.13;4.92;;;;;;;22.08;55.03;99730.86;1761988;80;20852;-78
2022/08/24 06:01:23;;;;;;;11.03;4.35;;;;;;;22.20;54.51;99731.14;1737824;81;20979;-77
2022/08/24 06:03:51;;;;;;;9.20;4.28;;;;;;;22.31;53.35;99734.81;1742782;80;21111;-76
2022/08/24 06:06:19;;;;;;;8.95;5.17;;;;;;;22.44;52.01;99738.09;1753058;80;20966;-74
2022/08/24 06:08:48;;;;;;;7.03;4.70;;;;;;;22.54;52.20;99739.52;1757728;80;20945;-74
2022/08/24 06:11:28;;;;;;;11.22;4.65;;;;;;;22.64;52.62;99737.97;1759284;80;21519;-68
2022/08/24 06:13:58;;;;;;;11.28;4.33;;;;;;;22.75;52.71;99731.83;1759260;80;21483;-76
2022/08/24 06:16:28;;;;;;;15.43;4.80;;;;;;;22.87;53.29;99735.70;1720118;82;39072;-74
2022/08/24 06:18:55;;;;;;;12.60;5.10;;;;;;;23.00;51.19;99738.36;1749885;80;21207;-76
2022/08/24 06:21:25;;;;;;;18.82;5.60;;;;;;;23.10;51.50;99739.59;1748411;79;21081;-74
2022/08/24 06:23:52;;;;;;;17.10;4.42;;;;;;;23.20;50.99;99737.98;1735078;79;21599;-74
2022/08/24 06:29:06;;;;;;;6.75;3.98;;;;;;;23.40;50.84;99735.04;1739029;80;21655;-74
2022/08/24 06:31:39;;;;;;;13.80;4.17;;;;;;;23.53;50.52;99741.89;1749850;80;21071;-79
2022/08/24 06:34:08;;;;;;;13.75;4.22;;;;;;;23.64;51.33;99739.91;1748887;80;21461;-73
2022/08/24 06:36:35;;;;;;;13.30;4.72;;;;;;;23.78;52.02;99741.89;1748560;80;20987;-78
2022/08/24 06:39:03;;;;;;;17.98;4.40;;;;;;;23.90;50.12;99740.70;1747343;80;21121;-69
2022/08/24 06:41:30;;;;;;;12.45;4.33;;;;;;;23.99;50.33;99738.28;1745265;80;21242;-70
2022/08/24 06:43:57;;;;;;;16.25;4.72;;;;;;;24.09;50.31;99744.49;1737302;80;21033;-71
2022/08/24 06:46:25;;;;;;;12.70;4.90;;;;;;;24.19;49.36;99735.27;1754072;80;20987;-72
2022/08/24 06:48:52;;;;;;;13.35;4.92;;;;;;;24.28;48.58;99741.27;1747471;80;20967;-78
2022/08/24 06:51:21;;;;;;;13.70;5.67;;;;;;;24.35;47.84;99743.26;1753562;80;21526;-82
2022/08/24 06:53:49;;;;;;;15.13;5.12;;;;;;;24.39;48.13;99738.44;1751860;80;21327;-81
2022/08/24 06:56:17;;;;;;;10.38;4.70;;;;;;;24.45;49.33;99741.63;1744861;80;20967;-80
2022/08/24 06:58:44;;;;;;;12.43;4.67;;;;;;;24.55;48.26;99736.59;1749276;80;21003;-87
2022/08/24 07:01:16;;;;;;;8.68;4.50;;;;;;;24.64;48.51;99745.39;1754047;80;20939;-83
2022/08/24 07:03:43;;;;;;;14.80;4.35;;;;;;;24.77;49.10;99745.15;1757417;80;21009;-77
2022/08/24 07:06:29;;;;;;;11.85;4.22;;;;;;;24.94;49.13;99747.06;1747392;80;21960;-77
2022/08/24 07:08:59;;;;;;;12.43;4.03;;;;;;;25.09;47.82;99752.04;1699858;82;21107;-72
2022/08/24 07:11:26;;;;;;;8.48;4.15;;;;;;;25.24;48.21;99749.35;1734304;82;21004;-73
2022/08/24 07:13:53;;;;;;;11.43;4.78;;;;;;;25.38;48.15;99747.06;1735369;82;21456;-73
2022/08/24 07:16:20;;;;;;;15.53;4.72;;;;;;;25.51;47.19;99742.54;1728025;81;20995;-72
2022/08/24 07:18:49;;;;;;;13.48;4.87;;;;;;;25.64;46.46;99746.50;1744962;81;21108;-73
2022/08/24 07:21:18;;;;;;;13.50;4.50;;;;;;;25.74;46.10;99742.00;1723090;80;21597;-75
2022/08/24 07:23:47;;;;;;;8.78;5.37;;;;;;;25.88;46.75;99748.92;1740957;81;20939;-75
2022/08/24 07:26:19;;;;;;;21.10;4.90;;;;;;;26.06;44.94;99748.75;1728943;80;20947;-79
2022/08/24 07:28:45;;;;;;;19.03;5.10;;;;;;;26.16;45.72;99746.44;1750181;81;20928;-79
2022/08/24 07:31:12;;;;;;;18.00;5.58;;;;;;;26.30;42.68;99749.13;1717160;82;21467;-77
2022/08/24 07:33:43;;;;;;;15.13;4.33;;;;;;;26.36;43.27;99748.09;1735968;80;21014;-74
2022/08/24 07:36:13;;;;;;;26.00;5.45;;;;;;;26.48;43.36;99748.17;1737949;80;21022;-73
2022/08/24 07:38:40;;;;;;;26.42;5.25;;;;;;;26.65;42.77;99757.80;1736143;80;20965;-74
2022/08/24 07:41:07;;;;;;;112.52;10.40;;;;;;;26.81;42.39;99750.18;1735195;82;21480;-83
2022/08/24 07:43:34;;;;;;;19.50;5.08;;;;;;;26.98;41.35;99758.25;1741018;82;21220;-84
2022/08/24 07:46:04;;;;;;;30.75;5.55;;;;;;;27.10;39.79;99762.53;1708252;81;20978;-79
2022/08/24 07:48:31;;;;;;;18.48;6.08;;;;;;;27.15;40.05;99761.42;1693977;82;20992;-79
2022/08/24 07:51:11;;;;;;;54.08;6.47;;;;;;;27.26;40.96;99766.92;1663811;82;21579;-73
2022/08/24 07:53:39;;;;;;;25.95;5.55;;;;;;;27.47;39.19;99768.64;1720381;82;21003;-75
2022/08/24 07:56:06;;;;;;;39.55;6.42;;;;;;;27.59;38.23;99770.30;1735911;82;21845;-74
2022/08/24 07:58:34;;;;;;;42.10;6.58;;;;;;;27.71;38.11;99768.12;1689511;82;21588;-87
2022/08/24 08:01:03;;;;;;;28.90;5.97;;;;;;;27.86;38.02;99765.23;1725291;82;20862;-76
2022/08/24 08:03:32;;;;;;;43.13;6.15;;;;;;;28.07;37.06;99759.23;1727138;82;20994;-70
2022/08/24 08:06:06;;;;;;;32.88;6.08;;;;;;;28.33;37.54;99755.37;1741186;82;21091;-70
2022/08/24 08:08:37;;;;;;;34.85;6.05;;;;;;;28.58;37.50;99750.85;1732782;82;21339;-69
2022/08/24 08:11:07;;;;;;;49.67;6.55;;;;;;;28.85;36.78;99752.17;1729158;82;21573;-71
2022/08/24 08:13:35;;;;;;;32.48;6.62;;;;;;;29.17;35.03;99749.25;1735809;82;20873;-71
2022/08/24 08:16:03;;;;;;;47.08;7.50;;;;;;;29.43;35.67;99752.53;1716539;81;20941;-71
2022/08/24 08:18:30;;;;;;;25.85;6.08;;;;;;;29.66;34.38;99747.95;1734665;82;21469;-71
2022/08/24 08:21:03;;;;;;;42.00;6.87;;;;;;;29.93;33.54;99751.32;1734210;82;21165;-74
2022/08/24 08:26:20;;;;;;;38.42;7.33;;;;;;;30.28;32.11;99738.29;1724473;82;21002;-75
2022/08/24 08:28:49;;;;;;;41.33;5.65;;;;;;;30.47;33.59;99739.41;1747219;81;21036;-71
2022/08/24 08:31:16;;;;;;;48.00;6.92;;;;;;;30.72;33.03;99743.76;1726385;82;20933;-70
2022/08/24 08:33:43;;;;;;;50.03;5.65;;;;;;;30.91;33.41;99742.63;1731159;82;21765;-79
2022/08/24 08:36:13;;;;;;;52.05;7.03;;;;;;;31.13;32.70;99747.88;1717050;82;21024;-76
2022/08/24 08:38:44;;;;;;;;;;;;;;;31.38;31.58;99742.83;1724864;82;21151;-78
2022/08/24 08:41:38;;;;;;;34.58;7.12;;;;;;;31.52;29.95;99746.02;1717312;82;20129;-74
2022/08/24 08:44:28;;;;;;;38.13;6.90;;;;;;;31.67;30.33;99750.61;1729456;82;20985;-85
2022/08/24 08:47:42;;;;;;;29.32;5.50;;;;;;;31.89;31.14;99746.45;1719414;82;21754;-88
2022/08/24 08:50:28;;;;;;;34.65;5.62;;;;;;;32.11;29.16;99749.37;1733372;82;20925;-84
2022/08/24 08:53:21;;;;;;;36.88;6.47;;;;;;;32.04;30.17;99743.92;1743425;82;21765;-76
2022/08/24 08:56:26;;;;;;;31.00;6.15;;;;;;;32.17;29.91;99756.84;1728786;82;20884;-81
2022/08/24 08:59:19;;;;;;;28.73;5.10;;;;;;;32.33;27.93;99752.30;1740659;82;21006;-69
2022/08/24 09:02:15;;;;;;;32.67;6.12;;;;;;;32.33;27.22;99747.41;1738432;82;21021;-71
2022/08/24 09:04:51;;;;;;;31.60;5.47;;;;;;;32.46;28.69;99743.87;1736619;82;21001;-70
2022/08/24 09:07:53;;;;;;;28.20;4.92;;;;;;;32.66;28.93;99744.19;1736543;82;21572;-73
2022/08/24 09:11:06;;;;;;;24.65;4.90;;;;;;;32.80;28.61;99742.27;1736411;81;20973;-73
2022/08/24 09:14:12;;;;;;;26.07;5.53;;;;;;;32.97;26.92;99740.78;1726397;81;21066;-74
2022/08/24 09:17:07;;;;;;;23.18;5.50;;;;;;;33.01;28.74;99742.87;1712676;82;21057;-75
2022/08/24 09:20:06;;;;;;;28.02;4.25;;;;;;;33.23;26.19;99744.27;1738548;81;21421;-76
2022/08/24 09:22:46;;;;;;;14.87;4.17;;;;;;;33.19;26.27;99742.19;1739256;81;21035;-72
2022/08/24 09:25:23;;;;;;;21.60;3.92;;;;;;;33.32;26.08;99747.81;1738845;81;20956;-71
2022/08/24 09:28:06;;;;;;;24.67;3.92;;;;;;;33.46;26.46;99745.83;1716942;80;21030;-72
2022/08/24 09:30:56;;;;;;;22.75;4.40;;;;;;;33.53;25.65;99742.67;1730352;80;26908;-70
2022/08/24 09:33:55;;;;;;;15.90;3.98;;;;;;;33.62;25.95;99746.19;1718943;81;21620;-69
2022/08/24 09:37:05;;;;;;;27.50;3.58;;;;;;;33.67;25.18;99740.67;1692324;82;21011;-69
2022/08/24 09:40:00;;;;;;;10.58;2.60;;;;;;;33.65;24.36;99744.63;1743461;81;20976;-71
2022/08/24 09:43:14;;;;;;;14.58;2.83;;;;;;;33.70;22.19;99741.80;1720931;81;20911;-71
2022/08/24 09:46:14;;;;;;;17.00;3.05;;;;;;;33.64;22.91;99733.70;1726994;81;21760;-73
2022/08/24 09:49:05;;;;;;;9.80;3.55;;;;;;;33.74;23.98;99738.17;1725744;80;22149;-71
2022/08/24 09:51:47;;;;;;;9.58;3.10;;;;;;;33.92;24.22;99736.83;1720938;82;20899;-72
2022/08/24 09:54:39;;;;;;;9.88;3.05;;;;;;;33.98;24.07;99729.88;1721769;80;21048;-73
2022/08/24 09:57:35;;;;;;;16.85;2.92;;;;;;;34.00;22.94;99740.17;1717340;81;21070;-72
2022/08/24 10:00:22;;;;;;;18.48;3.65;;;;;;;33.94;21.97;99731.45;1739913;80;21281;-73
2022/08/24 10:03:04;;;;;;;9.33;2.35;;;;;;;33.91;22.52;99735.25;1766211;80;20993;-72
2022/08/24 10:06:01;;;;;;;11.08;2.77;;;;;;;33.84;21.92;99731.27;1761361;80;21571;-70
2022/08/24 10:09:12;;;;;;;12.58;4.28;;;;;;;33.78;22.46;99728.84;1773861;79;20986;-73
2022/08/24 10:11:51;;;;;;;19.30;5.22;;;;;;;33.89;22.78;99724.95;1761128;79;20997;-73
2022/08/24 10:15:03;;;;;;;16.05;2.75;;;;;;;34.17;23.23;99724.98;1757247;80;20974;-70
2022/08/24 10:17:53;;;;;;;8.48;4.12;;;;;;;34.37;22.70;99719.66;1767667;80;20936;-67
2022/08/24 10:20:33;;;;;;;8.68;2.67;;;;;;;34.37;23.15;99724.72;1778964;80;20997;-69
2022/08/24 10:23:29;;;;;;;12.68;2.62;;;;;;;34.46;23.38;99723.93;1747351;80;21012;-69
2022/08/24 10:26:24;;;;;;;10.75;3.27;;;;;;;34.62;22.84;99724.24;1774174;80;20890;-69
2022/08/24 10:29:17;;;;;;;11.35;2.75;;;;;;;34.76;22.93;99722.94;1764386;79;22054;-68
2022/08/24 10:32:18;;;;;;;5.50;2.40;;;;;;;34.75;22.85;99714.22;1748978;80;21105;-67
2022/08/24 10:35:16;;;;;;;7.63;2.13;;;;;;;34.70;22.74;99712.02;1759577;80;20854;-71
2022/08/24 10:41:18;;;;;;;10.45;2.50;;;;;;;34.57;21.71;99719.97;1755462;80;20895;-68
2022/08/24 10:44:25;;;;;;;13.10;2.15;;;;;;;34.43;23.26;99712.05;1759766;80;21321;-71
2022/08/24 10:47:12;;;;;;;10.03;2.17;;;;;;;34.54;22.35;99718.06;1755157;79;20919;-68
2022/08/24 10:49:56;;;;;;;11.80;2.40;;;;;;;34.65;22.48;99718.38;1753570;80;21044;-68
2022/08/24 10:52:58;;;;;;;8.73;2.10;;;;;;;34.59;22.26;99710.94;1741041;80;20991;-68
2022/08/24 10:55:29;;;;;;;9.93;2.35;;;;;;;34.55;22.30;99718.23;1743467;80;21045;-69
2022/08/24 10:58:22;;;;;;;14.55;2.20;;;;;;;34.59;22.28;99713.16;1753667;80;21848;-71
2022/08/24 11:00:49;;;;;;;7.60;2.47;;;;;;;34.64;22.76;99711.73;1702642;83;20997;-71
2022/08/24 11:03:21;;;;;;;6.80;2.27;;;;;;;34.66;21.50;99710.63;1737232;80;20967;-71
2022/08/24 11:05:52;;;;;;;4.85;1.90;;;;;;;34.62;23.27;99715.69;1749355;80;20982;-74
2022/08/24 11:08:25;;;;;;;6.55;2.10;;;;;;;34.62;21.97;99707.93;1755513;79;21027;-71
2022/08/24 11:11:14;;;;;;;9.83;2.42;;;;;;;34.59;22.31;99704.61;1771369;79;21840;-70
2022/08/24 11:13:52;;;;;;;8.33;2.40;;;;;;;34.66;21.86;99715.66;1732626;80;20987;-69
2022/08/24 11:16:29;;;;;;;9.33;2.12;;;;;;;34.72;21.83;99708.69;1748041;80;20938;-71
2022/08/24 11:18:59;;;;;;;11.73;2.42;;;;;;;34.69;23.05;99718.98;1768486;79;20946;-70
2022/08/24 11:21:49;;;;;;;12.68;2.45;;;;;;;34.61;22.69;99699.86;1754103;80;21558;-69
2022/08/24 11:24:29;;;;;;;18.55;3.10;;;;;;;34.66;22.49;99718.51;1758575;80;21045;-71
2022/08/24 11:27:07;;;;;;;6.33;2.00;;;;;;;34.68;22.17;99707.42;1760978;80;21469;-75
2022/08/24 11:29:54;;;;;;;7.67;2.02;;;;;;;34.68;22.27;99717.40;1763525;80;20906;-74
2022/08/24 11:32:46;;;;;;;3.22;1.90;;;;;;;34.55;21.94;99709.67;1759232;80;20985;-71
2022/08/24 11:35:22;;;;;;;10.08;2.42;;;;;;;34.41;21.67;99711.73;1747529;79;20954;-70
2022/08/24 11:37:52;;;;;;;10.30;2.10;;;;;;;34.37;21.83;99709.68;1758447;80;21876;-69
2022/08/24 11:40:22;;;;;;;4.78;2.40;;;;;;;34.44;21.74;99692.27;1757945;80;20890;-71
2022/08/24 11:43:12;;;;;;;4.92;1.80;;;;;;;34.53;22.17;99700.02;1740189;82;21037;-70
2022/08/24 11:46:03;;;;;;;10.35;2.42;;;;;;;34.65;23.04;99702.70;1743929;81;21320;-68
2022/08/24 11:48:52;;;;;;;6.95;2.10;;;;;;;34.87;22.76;99701.72;1740704;81;21550;-70
2022/08/24 11:51:27;;;;;;;10.03;2.00;;;;;;;35.18;22.06;99698.00;1737825;81;21256;-71
2022/08/24 11:54:08;;;;;;;6.72;2.00;;;;;;;35.22;21.73;99704.33;1708539;82;21008;-70
2022/08/24 11:56:57;;;;;;;6.37;2.02;;;;;;;35.20;20.70;99714.63;1772171;79;20914;-70
2022/08/24 11:59:35;;;;;;;14.18;2.00;;;;;;;34.99;19.67;99717.86;1733354;81;20939;-72
2022/08/24 12:02:11;;;;;;;9.55;1.98;;;;;;;34.64;20.43;99698.27;1738076;82;21014;-67
2022/08/24 12:04:50;;;;;;;15.70;2.17;;;;;;;34.49;20.79;99702.23;1741565;82;21817;-72
2022/08/24 12:07:46;;;;;;;13.93;2.27;;;;;;;34.55;21.85;99708.25;1738521;81;20934;-69